Time;durP1;ratioP1;P1;durP2;ratioP2;P2;SDS_P1;SDS_P2;PMS_P1;PMS_P2;Temp;Humidity;BMP_temperature;BMP_pressure;BME280_temperature;BME280_humidity;BME280_pressure;Samples;Min_cycle;Max_cycle;Signal;HPM_P1;HPM_P2
2020/12/01 00:00:20;;;;;;;11.25;6.95;;;15.10;60.50;;;;;;5049397;28;20033;-61
2020/12/01 00:02:46;;;;;;;10.02;6.15;;;15.10;60.30;;;;;;5042600;28;20014;-62
2020/12/01 00:05:14;;;;;;;10.35;6.40;;;15.20;60.40;;;;;;5044108;28;20078;-62
2020/12/01 00:07:39;;;;;;;10.80;6.13;;;15.20;60.20;;;;;;5049927;28;20033;-63
2020/12/01 00:10:06;;;;;;;10.02;6.47;;;15.10;60.20;;;;;;5050258;28;20574;-61
2020/12/01 00:12:32;;;;;;;9.95;5.82;;;15.10;60.20;;;;;;5049611;28;20028;-62
2020/12/01 00:14:57;;;;;;;10.05;5.75;;;15.10;60.20;;;;;;5049616;28;20033;-61
2020/12/01 00:17:23;;;;;;;9.60;5.82;;;15.10;60.20;;;;;;5050229;28;20025;-62
2020/12/01 00:19:48;;;;;;;9.48;6.32;;;15.10;60.10;;;;;;5049422;28;20070;-61
2020/12/01 00:22:14;;;;;;;9.57;5.85;;;15.10;60.30;;;;;;5049057;28;20505;-62
2020/12/01 00:24:40;;;;;;;10.35;6.40;;;15.10;60.30;;;;;;5049929;28;20086;-62
2020/12/01 00:27:06;;;;;;;12.88;8.23;;;15.10;60.30;;;;;;5049891;28;20029;-62
2020/12/01 00:29:31;;;;;;;9.73;6.05;;;15.10;60.80;;;;;;5050133;28;20025;-62
2020/12/01 00:31:56;;;;;;;10.80;6.13;;;15.00;60.30;;;;;;5049299;28;20060;-62
2020/12/01 00:34:22;;;;;;;9.20;5.32;;;15.00;60.40;;;;;;5047933;28;20029;-62
2020/12/01 00:36:48;;;;;;;8.98;5.47;;;15.00;60.20;;;;;;5049418;28;20401;-62
2020/12/01 00:39:13;;;;;;;9.70;5.72;;;15.00;60.40;;;;;;5048421;28;20024;-61
2020/12/01 00:41:39;;;;;;;8.80;5.22;;;15.00;60.40;;;;;;5048901;28;20025;-61
2020/12/01 00:44:05;;;;;;;9.43;5.75;;;15.00;60.50;;;;;;5050608;28;20419;-62
2020/12/01 00:46:30;;;;;;;8.30;5.22;;;14.90;60.50;;;;;;5053637;28;20025;-62
2020/12/01 00:48:56;;;;;;;9.05;4.95;;;15.00;60.40;;;;;;5051726;28;20025;-61
2020/12/01 00:51:23;;;;;;;8.63;5.68;;;14.90;60.40;;;;;;5051612;28;20442;-62
2020/12/01 00:53:48;;;;;;;10.20;5.30;;;14.90;60.50;;;;;;5053124;28;20032;-62
2020/12/01 00:56:21;;;;;;;7.85;5.13;;;14.90;60.60;;;;;;5053534;28;20052;-62
2020/12/01 00:58:47;;;;;;;8.35;5.10;;;14.90;60.50;;;;;;5052582;28;20029;-62
2020/12/01 01:01:13;;;;;;;1444.78;677.30;;;14.90;60.60;;;;;;5052526;28;20568;-62
2020/12/01 01:03:39;;;;;;;687.45;340.23;;;14.80;60.70;;;;;;5053259;28;20398;-62
2020/12/01 01:06:04;;;;;;;340.10;137.73;;;14.80;60.60;;;;;;5053054;28;20037;-62
2020/12/01 01:08:30;;;;;;;209.45;87.93;;;14.80;60.50;;;;;;5052827;28;20039;-62
2020/12/01 01:10:55;;;;;;;168.20;72.40;;;14.80;60.70;;;;;;5052431;28;20029;-61
2020/12/01 01:13:21;;;;;;;151.48;65.63;;;14.80;60.70;;;;;;5052599;28;20029;-62
2020/12/01 01:15:47;;;;;;;138.75;59.22;;;14.80;60.60;;;;;;5050790;28;20451;-61
2020/12/01 01:18:12;;;;;;;140.90;58.22;;;14.80;60.70;;;;;;5052611;28;20113;-62
2020/12/01 01:20:38;;;;;;;122.85;52.72;;;14.80;60.80;;;;;;5052507;28;20098;-62
2020/12/01 01:23:03;;;;;;;115.13;49.83;;;14.80;60.80;;;;;;5051325;28;20061;-62
2020/12/01 01:25:29;;;;;;;103.10;46.78;;;14.80;60.80;;;;;;5052298;28;20049;-61
2020/12/01 01:27:54;;;;;;;102.65;46.38;;;14.80;60.80;;;;;;5052523;28;20490;-61
2020/12/01 01:30:22;;;;;;;97.60;42.92;;;14.80;60.90;;;;;;5050943;28;20560;-61
2020/12/01 01:32:47;;;;;;;94.95;41.30;;;14.80;60.90;;;;;;5050487;28;20037;-60
2020/12/01 01:35:15;;;;;;;86.57;38.30;;;14.70;60.80;;;;;;5052535;28;20791;-61
2020/12/01 01:37:41;;;;;;;78.72;34.72;;;14.80;60.90;;;;;;5052693;28;20032;-62
2020/12/01 01:40:08;;;;;;;74.63;35.13;;;14.80;60.90;;;;;;5066742;28;20025;-62
2020/12/01 01:42:33;;;;;;;75.65;34.80;;;14.80;60.90;;;;;;5052048;28;20025;-62
2020/12/01 01:44:59;;;;;;;69.78;32.78;;;14.80;60.90;;;;;;5056842;28;20052;-62
2020/12/01 01:47:31;;;;;;;65.43;30.83;;;14.80;60.90;;;;;;5052468;28;20067;-62
2020/12/01 01:49:59;;;;;;;;;;;14.70;60.60;;;;;;5052332;28;20521;-62
2020/12/01 01:52:30;;;;;;;62.35;29.35;;;14.70;60.80;;;;;;5051167;28;19915;-61
2020/12/01 01:55:05;;;;;;;60.63;28.27;;;14.80;60.80;;;;;;5052050;28;20033;-62
2020/12/01 01:57:31;;;;;;;58.58;27.70;;;14.70;60.80;;;;;;5051910;28;20033;-63
2020/12/01 01:59:58;;;;;;;50.83;25.30;;;14.70;60.80;;;;;;5051217;28;20041;-61
2020/12/01 02:02:24;;;;;;;51.03;24.70;;;14.70;60.60;;;;;;5051320;28;20086;-61
2020/12/01 02:04:50;;;;;;;47.22;23.25;;;14.70;60.70;;;;;;5051825;28;20029;-61
2020/12/01 02:07:36;;;;;;;52.50;24.10;;;14.80;60.20;;;;;;5052228;28;20035;-62
2020/12/01 02:10:02;;;;;;;50.22;23.67;;;14.80;60.40;;;;;;5051512;28;20033;-61
2020/12/01 02:12:28;;;;;;;46.95;23.42;;;14.80;60.40;;;;;;5051768;28;20070;-62
2020/12/01 02:15:05;;;;;;;43.83;21.77;;;14.80;60.60;;;;;;5051171;28;20053;-62
2020/12/01 02:17:33;;;;;;;44.78;21.67;;;14.80;60.50;;;;;;5051962;28;20063;-62
2020/12/01 02:20:28;;;;;;;43.42;20.38;;;14.80;60.40;;;;;;5051617;28;20029;-62
2020/12/01 02:22:55;;;;;;;42.60;21.15;;;14.80;60.60;;;;;;5032494;28;20087;-62
2020/12/01 02:25:22;;;;;;;43.08;19.73;;;14.80;60.50;;;;;;5051549;28;20478;-63
2020/12/01 02:27:50;;;;;;;33.30;18.05;;;14.80;60.70;;;;;;5051546;28;20025;-61
2020/12/01 02:30:16;;;;;;;37.03;17.55;;;14.80;60.60;;;;;;5050026;28;20032;-61
2020/12/01 02:32:42;;;;;;;37.75;17.75;;;14.80;60.60;;;;;;5049576;28;20025;-62
2020/12/01 02:35:11;;;;;;;34.35;17.80;;;14.80;60.60;;;;;;5051239;28;20027;-61
2020/12/01 02:37:39;;;;;;;35.65;18.52;;;14.80;60.70;;;;;;5051377;28;20430;-63
2020/12/01 02:40:14;;;;;;;34.45;18.00;;;14.80;60.70;;;;;;5051227;28;20017;-62
2020/12/01 02:42:40;;;;;;;35.15;17.58;;;14.80;60.70;;;;;;5050858;28;20029;-61
2020/12/01 02:45:07;;;;;;;31.98;16.10;;;14.80;60.70;;;;;;5051548;28;20112;-61
2020/12/01 02:47:32;;;;;;;29.65;15.55;;;14.70;61.20;;;;;;5051254;28;20028;-62
2020/12/01 02:49:58;;;;;;;29.65;15.02;;;14.70;61.30;;;;;;5049374;28;20108;-60
2020/12/01 02:52:23;;;;;;;29.17;14.82;;;14.80;60.80;;;;;;5050544;28;20090;-61
2020/12/01 02:54:50;;;;;;;27.65;14.07;;;14.70;60.70;;;;;;5051176;28;20021;-62
2020/12/01 02:57:16;;;;;;;26.27;13.20;;;14.70;60.70;;;;;;5050998;28;20025;-62
2020/12/01 02:59:41;;;;;;;27.80;13.07;;;14.70;60.70;;;;;;5050867;28;20078;-61
2020/12/01 03:02:07;;;;;;;39.67;23.23;;;14.70;60.70;;;;;;5049644;28;20053;-61
2020/12/01 03:04:32;;;;;;;32.10;16.77;;;14.70;60.70;;;;;;5050998;28;20060;-61
2020/12/01 03:06:58;;;;;;;28.45;14.75;;;14.70;60.70;;;;;;5050392;28;20440;-61
2020/12/01 03:09:23;;;;;;;26.38;13.88;;;14.70;60.60;;;;;;5047510;28;20415;-63
2020/12/01 03:11:49;;;;;;;26.23;13.35;;;14.70;60.60;;;;;;5050622;28;20037;-62
2020/12/01 03:14:16;;;;;;;23.48;12.30;;;14.70;60.70;;;;;;5051157;28;20021;-62
2020/12/01 03:16:42;;;;;;;25.15;12.85;;;14.70;60.70;;;;;;5050581;28;20114;-63
2020/12/01 03:19:07;;;;;;;34.42;20.55;;;14.70;60.80;;;;;;5050966;28;20545;-61
2020/12/01 03:21:33;;;;;;;27.58;14.52;;;14.70;60.80;;;;;;5065613;28;20029;-62
2020/12/01 03:23:58;;;;;;;23.40;12.35;;;14.70;60.80;;;;;;5049200;28;20199;-62
2020/12/01 03:26:24;;;;;;;21.85;11.80;;;14.60;60.70;;;;;;5049851;28;20029;-62
2020/12/01 03:28:49;;;;;;;23.67;11.55;;;14.60;60.70;;;;;;5050619;28;20417;-62
2020/12/01 03:31:19;;;;;;;23.20;11.70;;;14.70;60.70;;;;;;5049511;28;20060;-62
2020/12/01 03:33:45;;;;;;;22.17;11.23;;;14.70;60.70;;;;;;5050311;28;20546;-61
2020/12/01 03:36:11;;;;;;;19.17;10.55;;;14.60;60.70;;;;;;5049996;28;20037;-62
2020/12/01 03:38:37;;;;;;;17.70;9.75;;;14.60;60.70;;;;;;5050478;28;20059;-63
2020/12/01 03:41:03;;;;;;;18.98;10.52;;;14.60;60.70;;;;;;5049884;28;20036;-62
2020/12/01 03:43:29;;;;;;;471.10;325.77;;;14.60;60.70;;;;;;5048758;28;20664;-62
2020/12/01 03:45:54;;;;;;;87.25;53.38;;;14.60;60.80;;;;;;5050428;28;20028;-62
2020/12/01 03:48:20;;;;;;;38.40;22.38;;;14.60;60.80;;;;;;5050481;28;20032;-60
2020/12/01 03:50:46;;;;;;;25.85;15.70;;;14.60;60.80;;;;;;5050021;28;20028;-62
2020/12/01 03:53:11;;;;;;;24.90;14.77;;;14.60;60.80;;;;;;5049308;28;20055;-62
2020/12/01 03:55:37;;;;;;;24.05;13.85;;;14.60;60.80;;;;;;5050481;28;20044;-62
2020/12/01 03:58:03;;;;;;;22.00;13.25;;;14.60;60.70;;;;;;5050180;28;20029;-62
2020/12/01 04:00:30;;;;;;;24.83;14.20;;;14.60;60.70;;;;;;5049972;28;20254;-62
2020/12/01 04:02:56;;;;;;;22.60;12.60;;;14.60;60.80;;;;;;5049720;28;20027;-63
2020/12/01 04:05:24;;;;;;;20.45;12.25;;;14.60;60.80;;;;;;5049940;28;20032;-62
2020/12/01 04:07:51;;;;;;;21.63;12.05;;;14.60;60.80;;;;;;5049814;28;20478;-63
2020/12/01 04:10:18;;;;;;;22.88;11.85;;;14.50;60.70;;;;;;5049578;28;20379;-62
2020/12/01 04:12:44;;;;;;;20.70;11.43;;;14.60;60.80;;;;;;5049637;28;20021;-63
2020/12/01 04:15:11;;;;;;;22.08;11.75;;;14.50;60.80;;;;;;5049483;28;20104;-62
2020/12/01 04:17:36;;;;;;;22.98;11.70;;;14.50;60.70;;;;;;5049853;28;20032;-62
2020/12/01 04:20:04;;;;;;;18.02;10.30;;;14.50;60.70;;;;;;5054304;28;20028;-62
2020/12/01 04:22:29;;;;;;;17.45;9.68;;;14.50;60.70;;;;;;5046057;28;20028;-62
2020/12/01 04:24:55;;;;;;;20.77;9.85;;;14.50;60.70;;;;;;5034194;28;20026;-62
2020/12/01 04:27:20;;;;;;;16.88;9.63;;;14.50;60.70;;;;;;5053609;28;20413;-61
2020/12/01 04:29:46;;;;;;;18.45;9.98;;;14.50;60.80;;;;;;5053810;28;20628;-62
2020/12/01 04:32:12;;;;;;;17.48;9.48;;;14.50;60.80;;;;;;5052839;28;20116;-62
2020/12/01 04:34:37;;;;;;;16.77;9.50;;;14.40;60.70;;;;;;5053374;28;20440;-62
2020/12/01 04:37:05;;;;;;;18.30;9.57;;;14.40;60.70;;;;;;5052518;28;20457;-62
2020/12/01 04:39:31;;;;;;;15.18;8.73;;;14.50;60.80;;;;;;5053642;28;20017;-62
2020/12/01 04:41:57;;;;;;;15.88;8.90;;;14.50;60.60;;;;;;5052689;28;20032;-61
2020/12/01 04:44:48;;;;;;;15.23;8.55;;;14.50;60.70;;;;;;5053396;28;20541;-63
2020/12/01 04:47:20;;;;;;;;;;;14.40;60.70;;;;;;5056935;28;20033;-63
2020/12/01 04:50:11;;;;;;;15.65;8.25;;;14.50;60.70;;;;;;5053877;28;19916;-62
2020/12/01 04:52:36;;;;;;;13.93;7.22;;;14.50;60.80;;;;;;5048202;28;20033;-61
2020/12/01 04:55:16;;;;;;;12.98;6.97;;;14.50;60.60;;;;;;5052833;28;20103;-61
2020/12/01 04:58:09;;;;;;;13.00;6.57;;;14.50;60.20;;;;;;5053261;28;20112;-62
2020/12/01 05:00:40;;;;;;;13.30;6.75;;;14.40;60.00;;;;;;5051426;28;20036;-61
2020/12/01 05:03:47;;;;;;;13.38;7.28;;;14.50;60.40;;;;;;5044178;28;20482;-61
2020/12/01 05:06:41;;;;;;;13.23;7.13;;;14.50;60.60;;;;;;5050540;28;20045;-62
2020/12/01 05:09:20;;;;;;;12.48;6.72;;;14.50;60.90;;;;;;5053420;28;20024;-63
2020/12/01 05:11:58;;;;;;;12.68;6.47;;;14.50;61.00;;;;;;5052779;28;20067;-62
2020/12/01 05:14:37;;;;;;;12.48;6.55;;;14.50;61.10;;;;;;5052965;28;20028;-61
2020/12/01 05:17:15;;;;;;;13.07;6.68;;;14.50;60.90;;;;;;5052581;28;20039;-63
2020/12/01 05:19:45;;;;;;;13.13;7.00;;;14.60;61.00;;;;;;5052965;28;20512;-63
2020/12/01 05:22:16;;;;;;;12.90;6.45;;;14.60;61.00;;;;;;5050574;28;20032;-63
2020/12/01 05:24:43;;;;;;;15.15;5.88;;;14.60;61.00;;;;;;5052981;28;20029;-62
2020/12/01 05:27:23;;;;;;;11.85;5.82;;;14.60;61.00;;;;;;5051877;28;20037;-63
2020/12/01 05:29:54;;;;;;;13.23;6.53;;;14.60;60.80;;;;;;5047564;28;20037;-62
2020/12/01 05:32:35;;;;;;;13.70;5.63;;;14.70;60.90;;;;;;5041821;28;20409;-62
2020/12/01 05:35:15;;;;;;;;;;;14.70;60.90;;;;;;5042288;28;20033;-62
2020/12/01 05:37:53;;;;;;;12.00;6.07;;;14.70;61.20;;;;;;5045993;28;19913;-62
2020/12/01 05:40:19;;;;;;;10.63;5.95;;;14.80;61.30;;;;;;5044865;28;20044;-62
2020/12/01 05:42:46;;;;;;;13.48;6.35;;;14.80;61.40;;;;;;5043712;28;20017;-62
2020/12/01 05:45:38;;;;;;;11.57;5.63;;;14.80;61.40;;;;;;5043627;28;20637;-62
2020/12/01 05:48:10;;;;;;;10.35;5.90;;;14.80;61.30;;;;;;5026804;28;20045;-61
2020/12/01 05:50:47;;;;;;;16.95;5.88;;;14.80;61.40;;;;;;5026029;28;20033;-62
2020/12/01 05:53:18;;;;;;;14.45;5.78;;;14.80;61.30;;;;;;5044361;28;20124;-61
2020/12/01 05:56:00;;;;;;;17.02;8.35;;;14.80;61.40;;;;;;5025917;28;20545;-62
2020/12/01 05:58:37;;;;;;;14.25;5.90;;;14.80;61.50;;;;;;5025193;28;20563;-60
2020/12/01 06:01:02;;;;;;;10.15;5.55;;;15.00;63.10;;;;;;5027948;28;20033;-61
2020/12/01 06:04:06;;;;;;;13.60;5.45;;;15.10;62.00;;;;;;5039222;28;20455;-62
2020/12/01 06:06:44;;;;;;;15.07;5.70;;;15.10;61.20;;;;;;5042417;28;20041;-61
2020/12/01 06:10:11;;;;;;;11.07;5.25;;;15.20;61.30;;;;;;5045982;28;20059;-60
2020/12/01 06:12:58;;;;;;;14.07;5.00;;;15.30;61.70;;;;;;5001884;28;20059;-62
2020/12/01 06:15:24;;;;;;;14.80;5.05;;;15.40;62.00;;;;;;5003134;28;20037;-65
2020/12/01 06:18:05;;;;;;;17.25;5.32;;;15.50;62.20;;;;;;5035315;28;20052;-62
2020/12/01 06:20:34;;;;;;;;;;;15.60;62.20;;;;;;5044945;28;20090;-62
2020/12/01 06:23:21;;;;;;;15.13;5.20;;;15.70;62.10;;;;;;5049625;28;19966;-62
2020/12/01 06:26:08;;;;;;;18.55;5.30;;;15.80;62.90;;;;;;5050133;28;20035;-63
2020/12/01 06:32:40;;;;;;;16.25;4.95;;;15.90;63.00;;;;;;5050363;28;20500;-67
2020/12/01 06:35:43;;;;;;;17.92;5.47;;;16.10;62.60;;;;;;5045605;28;20513;-65
2020/12/01 06:38:30;;;;;;;20.17;5.65;;;16.20;62.50;;;;;;5051521;28;20093;-67
2020/12/01 06:41:17;;;;;;;20.30;5.22;;;16.30;62.30;;;;;;5060310;28;20171;-65
2020/12/01 06:43:53;;;;;;;20.65;5.28;;;16.40;61.90;;;;;;5037754;28;20033;-65
2020/12/01 06:46:33;;;;;;;15.75;4.95;;;16.40;61.80;;;;;;5063341;28;20024;-66
2020/12/01 06:49:00;;;;;;;13.45;4.90;;;16.40;61.70;;;;;;5051312;28;20033;-67
2020/12/01 06:51:26;;;;;;;16.52;4.70;;;16.40;61.60;;;;;;5049426;28;20063;-67
2020/12/01 06:53:52;;;;;;;11.70;4.80;;;16.40;61.80;;;;;;5052309;28;20067;-66
2020/12/01 06:56:18;;;;;;;11.32;4.43;;;16.40;62.00;;;;;;5050993;28;20498;-67
2020/12/01 06:58:46;;;;;;;12.25;5.20;;;16.40;62.10;;;;;;5050768;28;20112;-67
2020/12/01 07:01:18;;;;;;;13.00;5.07;;;16.40;62.20;;;;;;5050517;28;20029;-67
2020/12/01 07:03:46;;;;;;;16.98;5.53;;;16.40;62.60;;;;;;5050832;28;20135;-67
2020/12/01 07:06:45;;;;;;;12.75;4.97;;;16.40;62.50;;;;;;5050884;28;20025;-67
2020/12/01 07:09:13;;;;;;;11.33;4.63;;;16.40;62.80;;;;;;5051055;28;20154;-67
2020/12/01 07:11:56;;;;;;;11.75;4.90;;;16.40;62.70;;;;;;5050326;28;20025;-67
2020/12/01 07:14:29;;;;;;;16.65;4.35;;;16.40;62.60;;;;;;5050853;28;20032;-67
2020/12/01 07:16:55;;;;;;;11.73;4.70;;;16.50;62.60;;;;;;5049405;28;20029;-67
2020/12/01 07:19:43;;;;;;;12.20;5.13;;;16.50;62.30;;;;;;5050680;28;20021;-67
2020/12/01 07:22:33;;;;;;;12.57;5.18;;;16.60;62.40;;;;;;5049996;28;20567;-68
2020/12/01 07:25:17;;;;;;;18.63;6.38;;;16.60;62.40;;;;;;5050612;28;20023;-67
2020/12/01 07:28:03;;;;;;;13.60;5.35;;;16.60;62.40;;;;;;5049038;28;20386;-67
2020/12/01 07:30:31;;;;;;;10.60;5.72;;;16.50;62.50;;;;;;5050623;28;20024;-67
2020/12/01 07:32:56;;;;;;;13.02;6.13;;;16.60;62.70;;;;;;5049699;28;20021;-66
2020/12/01 07:35:33;;;;;;;12.40;5.68;;;16.60;63.00;;;;;;5049936;28;20025;-67
2020/12/01 07:38:27;;;;;;;12.48;5.85;;;16.60;63.30;;;;;;5050411;28;20025;-67
2020/12/01 07:40:56;;;;;;;12.77;5.70;;;16.60;62.90;;;;;;5050097;28;20029;-67
2020/12/01 07:43:23;;;;;;;13.00;6.18;;;16.60;62.60;;;;;;5049980;28;20029;-67
2020/12/01 07:45:59;;;;;;;10.90;5.57;;;16.60;62.80;;;;;;5050247;28;20025;-67
2020/12/01 07:48:24;;;;;;;13.32;6.20;;;16.60;63.00;;;;;;5049958;28;20086;-67
2020/12/01 07:50:50;;;;;;;10.20;5.30;;;16.60;62.70;;;;;;5049975;28;20037;-68
2020/12/01 07:53:21;;;;;;;11.82;5.07;;;16.60;62.40;;;;;;5048444;28;20025;-67
2020/12/01 07:55:56;;;;;;;9.82;5.20;;;16.60;62.50;;;;;;5033587;28;20034;-67
2020/12/01 07:58:24;;;;;;;10.98;5.10;;;16.60;62.50;;;;;;5030116;28;20053;-67
2020/12/01 08:00:57;;;;;;;11.13;5.70;;;16.60;62.40;;;;;;5047809;28;20029;-67
2020/12/01 08:03:32;;;;;;;12.32;6.30;;;16.60;62.50;;;;;;5050090;28;20060;-67
2020/12/01 08:06:10;;;;;;;14.57;6.60;;;16.60;62.70;;;;;;5045436;28;20033;-68
2020/12/01 08:08:38;;;;;;;12.93;6.25;;;16.60;64.40;;;;;;5046675;28;20025;-65
2020/12/01 08:11:09;;;;;;;13.50;6.20;;;16.70;64.30;;;;;;5059978;28;20025;-66
2020/12/01 08:13:36;;;;;;;9.80;5.50;;;16.70;63.80;;;;;;5048746;28;20032;-66
2020/12/01 08:16:28;;;;;;;16.80;6.03;;;16.70;63.60;;;;;;5062143;28;20031;-67
2020/12/01 08:18:54;;;;;;;12.27;6.05;;;16.70;63.80;;;;;;5058762;28;20071;-65
2020/12/01 08:21:24;;;;;;;10.55;6.10;;;16.70;64.00;;;;;;5060096;28;20035;-67
2020/12/01 08:23:52;;;;;;;11.23;6.07;;;16.70;64.10;;;;;;5069258;28;20032;-66
2020/12/01 08:26:27;;;;;;;10.95;6.22;;;16.70;64.10;;;;;;5069355;28;20054;-65
2020/12/01 08:29:11;;;;;;;10.27;6.25;;;16.70;64.30;;;;;;5068009;28;20501;-65
2020/12/01 08:32:03;;;;;;;9.93;5.45;;;16.70;64.40;;;;;;5064943;28;20028;-65
2020/12/01 08:34:47;;;;;;;12.18;6.03;;;16.70;64.00;;;;;;5068724;28;20074;-68
2020/12/01 08:37:47;;;;;;;12.90;6.13;;;16.70;63.50;;;;;;5069082;28;20025;-67
2020/12/01 08:40:55;;;;;;;9.27;5.38;;;16.70;63.60;;;;;;5068410;28;20085;-67
2020/12/01 08:43:30;;;;;;;18.88;6.45;;;16.70;63.40;;;;;;5062394;28;20089;-63
2020/12/01 08:46:10;;;;;;;13.13;6.88;;;16.70;62.60;;;;;;5070244;28;20031;-64
2020/12/01 08:48:38;;;;;;;9.77;5.95;;;16.70;62.40;;;;;;5070169;28;20033;-64
2020/12/01 08:51:29;;;;;;;10.80;6.18;;;16.70;62.60;;;;;;5068481;28;20501;-64
2020/12/01 08:54:13;;;;;;;11.05;5.70;;;16.70;62.80;;;;;;5068720;28;20447;-66
2020/12/01 08:56:47;;;;;;;13.75;6.13;;;16.70;62.70;;;;;;5069860;28;20032;-65
2020/12/01 08:59:33;;;;;;;11.05;5.28;;;16.70;62.70;;;;;;5069842;28;20024;-65
2020/12/01 09:02:01;;;;;;;9.68;5.10;;;16.70;62.70;;;;;;5069631;28;20020;-64
2020/12/01 09:04:30;;;;;;;10.93;5.40;;;16.70;62.30;;;;;;5069834;28;20071;-65
2020/12/01 09:07:08;;;;;;;10.75;5.22;;;16.70;62.50;;;;;;5073680;28;20020;-65
2020/12/01 09:09:34;;;;;;;8.13;5.28;;;16.70;62.50;;;;;;5073444;28;20104;-64
2020/12/01 09:20:26;;;;;;;11.02;5.53;;;16.70;62.10;;;;;;5046878;28;20026;-64
2020/12/01 09:23:06;;;;;;;101.65;12.27;;;16.70;62.20;;;;;;5040534;28;20108;-63
2020/12/01 09:25:34;;;;;;;52.70;9.60;;;16.70;62.40;;;;;;5042101;28;20433;-66
2020/12/01 09:27:59;;;;;;;26.23;6.88;;;16.70;62.10;;;;;;5039328;28;20136;-64
2020/12/01 09:30:35;;;;;;;29.95;7.07;;;16.70;62.60;;;;;;5057936;28;20473;-64
2020/12/01 09:33:04;;;;;;;21.60;6.75;;;16.70;62.40;;;;;;5072470;28;20505;-65
2020/12/01 09:35:30;;;;;;;25.80;7.03;;;16.70;62.70;;;;;;5072368;28;20025;-65
2020/12/01 09:37:56;;;;;;;17.02;6.25;;;16.70;62.70;;;;;;5072411;28;20032;-66
2020/12/01 09:40:26;;;;;;;16.33;5.97;;;16.70;62.90;;;;;;5072443;28;20108;-66
2020/12/01 09:42:53;;;;;;;20.83;6.03;;;16.60;62.80;;;;;;5035391;28;20068;-66
2020/12/01 09:45:23;;;;;;;18.25;6.40;;;16.70;62.80;;;;;;5030898;28;20014;-63
2020/12/01 09:47:55;;;;;;;18.60;6.43;;;16.60;62.00;;;;;;5047603;28;20030;-64
2020/12/01 09:50:25;;;;;;;15.52;6.60;;;16.60;60.60;;;;;;5049255;28;20059;-64
2020/12/01 09:52:59;;;;;;;12.88;6.05;;;16.50;59.40;;;;;;5051977;28;20056;-63
2020/12/01 10:16:32;;;;;;;12.27;5.63;;;16.40;61.00;;;;;;5032326;28;20021;-64
2020/12/01 10:22:22;;;;;;;10.52;5.40;;;16.40;61.00;;;;;;5031760;28;20033;-64
2020/12/01 10:32:41;;;;;;;8.73;5.50;;;16.30;61.20;;;;;;5031644;28;20053;-64
2020/12/01 10:37:32;;;;;;;9.40;4.97;;;16.30;61.10;;;;;;5031815;28;20437;-64
2020/12/01 10:39:58;;;;;;;8.40;4.95;;;16.30;61.00;;;;;;5047149;28;20110;-65
2020/12/01 10:42:23;;;;;;;8.35;4.88;;;16.20;60.90;;;;;;5031817;28;20017;-65
2020/12/01 10:44:49;;;;;;;9.73;5.10;;;16.20;61.00;;;;;;5031666;28;20025;-64
2020/12/01 10:47:15;;;;;;;12.27;5.45;;;16.20;60.90;;;;;;5030399;28;20033;-64
2020/12/01 10:49:40;;;;;;;10.05;5.13;;;16.20;60.80;;;;;;5031647;28;20036;-64
2020/12/01 10:52:06;;;;;;;8.57;5.30;;;16.30;60.80;;;;;;5030053;28;20024;-65
2020/12/01 10:54:32;;;;;;;8.98;5.22;;;16.30;60.80;;;;;;5031538;28;20028;-64
2020/12/01 10:56:58;;;;;;;9.52;4.88;;;16.30;60.60;;;;;;5031533;28;20087;-63
2020/12/01 10:59:25;;;;;;;10.85;5.40;;;16.30;60.50;;;;;;5031561;28;20030;-67
2020/12/01 11:01:51;;;;;;;8.50;4.85;;;16.30;60.60;;;;;;5031275;28;20017;-64
2020/12/01 11:04:18;;;;;;;7.15;4.47;;;16.30;60.50;;;;;;5046895;28;20067;-63
2020/12/01 11:06:44;;;;;;;7.18;4.53;;;16.30;60.50;;;;;;5030617;28;20108;-64
2020/12/01 11:09:10;;;;;;;7.68;4.45;;;16.30;60.40;;;;;;5030264;28;20112;-64
2020/12/01 11:11:36;;;;;;;7.95;4.30;;;16.30;60.30;;;;;;5031104;28;20048;-63
2020/12/01 11:14:03;;;;;;;8.32;5.00;;;16.30;60.20;;;;;;5030296;28;20446;-63
2020/12/01 11:16:29;;;;;;;7.45;4.78;;;16.40;60.10;;;;;;5031474;28;20463;-63
2020/12/01 11:18:54;;;;;;;9.27;4.55;;;16.40;60.00;;;;;;5046677;28;20032;-64
2020/12/01 11:21:20;;;;;;;7.18;4.47;;;16.40;60.00;;;;;;5031057;28;20304;-64
2020/12/01 11:23:45;;;;;;;6.97;4.20;;;16.30;59.90;;;;;;5031305;28;20399;-63
2020/12/01 11:26:13;;;;;;;8.70;4.82;;;16.30;59.90;;;;;;5030008;28;20029;-65
2020/12/01 11:28:38;;;;;;;8.40;4.93;;;16.30;59.80;;;;;;5030527;28;20025;-64
2020/12/01 11:31:04;;;;;;;7.80;4.70;;;16.30;59.80;;;;;;5030650;28;20022;-66
2020/12/01 11:33:30;;;;;;;7.05;4.57;;;16.30;59.90;;;;;;5030982;28;20053;-64
2020/12/01 11:35:55;;;;;;;7.88;4.50;;;16.30;59.80;;;;;;5030884;28;20104;-64
2020/12/01 11:38:21;;;;;;;8.32;4.57;;;16.30;59.90;;;;;;5030826;28;20124;-64
2020/12/01 11:40:46;;;;;;;7.55;4.10;;;16.30;59.90;;;;;;5030474;28;20095;-64
2020/12/01 11:43:12;;;;;;;7.57;4.50;;;16.20;59.90;;;;;;5030814;28;20049;-64
2020/12/01 11:45:37;;;;;;;6.65;4.30;;;16.20;59.90;;;;;;5030685;28;20017;-64
2020/12/01 11:48:03;;;;;;;8.13;4.38;;;16.20;60.00;;;;;;5030692;28;20156;-64
2020/12/01 11:50:28;;;;;;;7.47;4.30;;;16.20;60.00;;;;;;5029296;28;20030;-65
2020/12/01 11:52:54;;;;;;;7.32;4.80;;;16.20;60.00;;;;;;5030301;28;20053;-64
2020/12/01 11:55:19;;;;;;;7.90;4.80;;;16.20;60.10;;;;;;5030434;28;20026;-65
2020/12/01 11:57:45;;;;;;;7.05;4.47;;;16.10;60.00;;;;;;5030322;28;20541;-64
2020/12/01 12:00:19;;;;;;;7.63;4.25;;;16.10;60.00;;;;;;5030563;28;20021;-64
2020/12/01 12:02:45;;;;;;;7.20;4.55;;;16.10;60.10;;;;;;5045465;28;20033;-65
2020/12/01 12:05:11;;;;;;;8.13;4.32;;;16.10;60.10;;;;;;5030448;28;20029;-64
2020/12/01 12:07:36;;;;;;;7.97;4.30;;;16.10;60.10;;;;;;5029107;28;20025;-64
2020/12/01 12:10:02;;;;;;;7.70;4.63;;;16.10;60.10;;;;;;5030306;28;20395;-64
2020/12/01 12:12:28;;;;;;;6.30;4.05;;;16.10;60.20;;;;;;5030096;28;20380;-65
2020/12/01 12:14:53;;;;;;;7.50;4.38;;;16.10;60.00;;;;;;5030379;28;20033;-64
2020/12/01 12:17:19;;;;;;;6.95;4.68;;;16.10;60.10;;;;;;5030277;28;20033;-64
2020/12/01 12:19:44;;;;;;;7.60;4.60;;;16.10;60.10;;;;;;5030243;28;20037;-65
2020/12/01 12:22:10;;;;;;;8.38;4.43;;;16.00;60.10;;;;;;5029956;28;20036;-64
2020/12/01 12:24:35;;;;;;;7.38;4.32;;;16.00;60.10;;;;;;5030226;28;20092;-64
2020/12/01 12:27:01;;;;;;;7.32;4.43;;;16.00;60.20;;;;;;5030418;28;20026;-62
2020/12/01 12:29:26;;;;;;;7.50;4.20;;;15.80;60.00;;;;;;5043349;28;20036;-64
2020/12/01 12:31:52;;;;;;;8.23;4.22;;;15.90;60.30;;;;;;5048958;28;20614;-64
2020/12/01 12:34:18;;;;;;;9.10;4.80;;;15.90;60.20;;;;;;5049092;28;20457;-65
2020/12/01 12:36:43;;;;;;;7.65;4.22;;;15.90;60.20;;;;;;5054824;28;20121;-64
2020/12/01 12:39:10;;;;;;;6.20;4.00;;;15.90;60.40;;;;;;5047931;28;20040;-64
2020/12/01 12:41:36;;;;;;;6.57;4.13;;;15.80;60.50;;;;;;5052452;28;20047;-64
2020/12/01 12:44:03;;;;;;;8.98;4.60;;;15.80;60.60;;;;;;5053324;28;20025;-63
2020/12/01 12:46:30;;;;;;;7.18;4.28;;;15.80;60.60;;;;;;5053436;28;20020;-65
2020/12/01 12:48:55;;;;;;;6.80;4.15;;;15.80;60.70;;;;;;5057087;28;20078;-64
2020/12/01 12:51:21;;;;;;;8.50;4.40;;;15.80;60.80;;;;;;5051458;28;20033;-64
2020/12/01 12:53:46;;;;;;;9.77;4.70;;;15.80;60.80;;;;;;5052988;28;20033;-64
2020/12/01 12:56:12;;;;;;;7.38;4.65;;;15.80;60.80;;;;;;5052963;28;20470;-64
2020/12/01 12:58:37;;;;;;;8.98;4.63;;;15.70;60.80;;;;;;5052710;28;20021;-65
2020/12/01 13:01:03;;;;;;;7.15;4.50;;;15.70;60.80;;;;;;5053198;28;20032;-63
2020/12/01 13:03:29;;;;;;;7.13;4.45;;;15.70;60.80;;;;;;5053353;28;20444;-64
2020/12/01 13:05:54;;;;;;;8.23;4.18;;;15.70;60.80;;;;;;5036840;28;20056;-64
2020/12/01 13:08:20;;;;;;;7.93;4.25;;;15.60;60.80;;;;;;5049055;28;20051;-65
2020/12/01 13:10:46;;;;;;;6.80;4.20;;;15.60;60.80;;;;;;5072835;28;20033;-64
2020/12/01 13:13:11;;;;;;;8.32;4.57;;;15.60;60.70;;;;;;5052455;28;20490;-63
2020/12/01 13:15:37;;;;;;;6.88;4.13;;;15.60;61.00;;;;;;5064480;28;20032;-64
2020/12/01 13:18:02;;;;;;;11.07;4.45;;;15.60;60.70;;;;;;5073233;28;20024;-64
2020/12/01 13:20:30;;;;;;;7.78;4.72;;;15.60;60.40;;;;;;5056344;28;20029;-64
2020/12/01 13:22:56;;;;;;;9.40;4.82;;;15.60;60.50;;;;;;5053204;28;20071;-63
2020/12/01 13:25:22;;;;;;;6.95;4.10;;;15.60;60.60;;;;;;5053407;28;20429;-64
2020/12/01 13:27:47;;;;;;;6.95;4.30;;;15.60;60.60;;;;;;5053147;28;20151;-64
2020/12/01 13:33:35;;;;;;;7.40;4.57;;;15.60;60.60;;;;;;5032403;28;20494;-64
2020/12/01 13:36:00;;;;;;;8.40;4.30;;;15.60;60.70;;;;;;5036254;28;20056;-64
2020/12/01 13:38:26;;;;;;;7.63;4.47;;;15.60;60.60;;;;;;5051581;28;20021;-65
2020/12/01 13:40:51;;;;;;;11.65;7.28;;;15.50;60.90;;;;;;5052326;28;20025;-65
2020/12/01 13:43:17;;;;;;;15.60;6.28;;;15.50;61.20;;;;;;5038833;28;20023;-66